N726AK -KVNC
Flight info
| Callsign | N726AK |
|---|---|
| Flight time | N/A |
| Altitude | VFR |
| Route | |
| Aircraft | C172/L-VGD/C |
Departure
| Time | N/A |
|---|---|
| Airport | - |
Arrival
| Time | 2026-05-04 21:20 |
|---|---|
| Airport | Venice Municipal Airport (KVNC) |
| Time | Latitude | Longitude | Altitude | Speed | Heading |
|---|---|---|---|---|---|
| 2026-05-04 20:23 | 28.72437 | -82.18037 | 6427 ft | 116 kts | 185° |
| 2026-05-04 20:24 | 28.71631 | -82.18169 | 6429 ft | 116 kts | 185° |
| 2026-05-04 20:24 | 28.70830 | -82.18300 | 6432 ft | 116 kts | 185° |
| 2026-05-04 20:24 | 28.70026 | -82.18430 | 6434 ft | 116 kts | 185° |
| 2026-05-04 20:24 | 28.69225 | -82.18560 | 6441 ft | 116 kts | 185° |
| 2026-05-04 20:25 | 28.68415 | -82.18694 | 6437 ft | 116 kts | 185° |
| 2026-05-04 20:25 | 28.67618 | -82.18823 | 6437 ft | 116 kts | 185° |
| 2026-05-04 20:25 | 28.66812 | -82.18954 | 6435 ft | 116 kts | 185° |
| 2026-05-04 20:25 | 28.66019 | -82.19081 | 6436 ft | 115 kts | 185° |
| 2026-05-04 20:26 | 28.65224 | -82.19212 | 6437 ft | 115 kts | 185° |
| 2026-05-04 20:26 | 28.64423 | -82.19341 | 6437 ft | 115 kts | 184° |
| 2026-05-04 20:26 | 28.63627 | -82.19472 | 6442 ft | 115 kts | 185° |
| 2026-05-04 20:26 | 28.62823 | -82.19601 | 6441 ft | 116 kts | 185° |
| 2026-05-04 20:27 | 28.62024 | -82.19731 | 6439 ft | 116 kts | 185° |
| 2026-05-04 20:27 | 28.61224 | -82.19861 | 6438 ft | 117 kts | 185° |
| 2026-05-04 20:27 | 28.60408 | -82.19993 | 6434 ft | 117 kts | 184° |
| 2026-05-04 20:27 | 28.59597 | -82.20126 | 6427 ft | 117 kts | 185° |
| 2026-05-04 20:28 | 28.58791 | -82.20234 | 6431 ft | 116 kts | 182° |
| 2026-05-04 20:28 | 28.57979 | -82.20329 | 6432 ft | 117 kts | 184° |
| 2026-05-04 20:28 | 28.57178 | -82.20448 | 6427 ft | 117 kts | 185° |
| 2026-05-04 20:28 | 28.56362 | -82.20570 | 6424 ft | 116 kts | 185° |
| 2026-05-04 20:29 | 28.55568 | -82.20692 | 6426 ft | 116 kts | 185° |
| 2026-05-04 20:29 | 28.54761 | -82.20819 | 6425 ft | 116 kts | 185° |
| 2026-05-04 20:29 | 28.53948 | -82.20947 | 6427 ft | 116 kts | 185° |
| 2026-05-04 20:29 | 28.53152 | -82.21073 | 6433 ft | 117 kts | 185° |
| 2026-05-04 20:30 | 28.52333 | -82.21204 | 6432 ft | 117 kts | 185° |
| 2026-05-04 20:30 | 28.51529 | -82.21333 | 6432 ft | 117 kts | 184° |
| 2026-05-04 20:30 | 28.50718 | -82.21465 | 6432 ft | 117 kts | 185° |
| 2026-05-04 20:30 | 28.49897 | -82.21596 | 6431 ft | 117 kts | 184° |
| 2026-05-04 20:31 | 28.49086 | -82.21727 | 6429 ft | 117 kts | 185° |
| 2026-05-04 20:31 | 28.48282 | -82.21856 | 6430 ft | 117 kts | 185° |
| 2026-05-04 20:31 | 28.47467 | -82.21987 | 6432 ft | 117 kts | 185° |
| 2026-05-04 20:31 | 28.46658 | -82.22118 | 6434 ft | 118 kts | 185° |
| 2026-05-04 20:32 | 28.45836 | -82.22250 | 6433 ft | 118 kts | 185° |
| 2026-05-04 20:32 | 28.45298 | -82.22336 | 6435 ft | 118 kts | 185° |
| 2026-05-04 20:32 | 28.44210 | -82.22512 | 6435 ft | 118 kts | 185° |
| 2026-05-04 20:32 | 28.43389 | -82.22643 | 6435 ft | 118 kts | 186° |
| 2026-05-04 20:33 | 28.42571 | -82.22776 | 6436 ft | 118 kts | 185° |
| 2026-05-04 20:33 | 28.41756 | -82.22909 | 6436 ft | 118 kts | 185° |
| 2026-05-04 20:33 | 28.40942 | -82.23040 | 6436 ft | 118 kts | 185° |
| 2026-05-04 20:33 | 28.40124 | -82.23171 | 6435 ft | 117 kts | 185° |
| 2026-05-04 20:34 | 28.39312 | -82.23302 | 6438 ft | 117 kts | 185° |
| 2026-05-04 20:34 | 28.38505 | -82.23431 | 6438 ft | 117 kts | 185° |
| 2026-05-04 20:34 | 28.37694 | -82.23562 | 6434 ft | 117 kts | 185° |
| 2026-05-04 20:34 | 28.36897 | -82.23690 | 6437 ft | 116 kts | 185° |
| 2026-05-04 20:35 | 28.36083 | -82.23820 | 6440 ft | 116 kts | 185° |
| 2026-05-04 20:35 | 28.35285 | -82.23947 | 6438 ft | 117 kts | 186° |
| 2026-05-04 20:35 | 28.34468 | -82.24080 | 6437 ft | 117 kts | 185° |
| 2026-05-04 20:35 | 28.33666 | -82.24209 | 6436 ft | 117 kts | 185° |
| 2026-05-04 20:36 | 28.32843 | -82.24342 | 6438 ft | 118 kts | 185° |
| 2026-05-04 20:36 | 28.32029 | -82.24474 | 6435 ft | 118 kts | 185° |
| 2026-05-04 20:36 | 28.31222 | -82.24604 | 6434 ft | 117 kts | 185° |
| 2026-05-04 20:36 | 28.30416 | -82.24734 | 6435 ft | 117 kts | 185° |
| 2026-05-04 20:37 | 28.29603 | -82.24865 | 6435 ft | 117 kts | 186° |
| 2026-05-04 20:37 | 28.28797 | -82.24995 | 6436 ft | 117 kts | 186° |
| 2026-05-04 20:37 | 28.27984 | -82.25126 | 6436 ft | 117 kts | 185° |
| 2026-05-04 20:37 | 28.27163 | -82.25259 | 6436 ft | 118 kts | 185° |
| 2026-05-04 20:38 | 28.26349 | -82.25388 | 6434 ft | 118 kts | 186° |
| 2026-05-04 20:38 | 28.25539 | -82.25518 | 6434 ft | 118 kts | 186° |
| 2026-05-04 20:38 | 28.24718 | -82.25650 | 6434 ft | 119 kts | 186° |
| 2026-05-04 20:38 | 28.23887 | -82.25783 | 6437 ft | 120 kts | 186° |
| 2026-05-04 20:39 | 28.23065 | -82.25915 | 6434 ft | 120 kts | 187° |
| 2026-05-04 20:39 | 28.22226 | -82.26051 | 6432 ft | 120 kts | 186° |
| 2026-05-04 20:39 | 28.21393 | -82.26186 | 6435 ft | 120 kts | 186° |
| 2026-05-04 20:39 | 28.20561 | -82.26319 | 6435 ft | 120 kts | 186° |
| 2026-05-04 20:40 | 28.19740 | -82.26453 | 6436 ft | 120 kts | 185° |
| 2026-05-04 20:40 | 28.18911 | -82.26586 | 6435 ft | 119 kts | 185° |
| 2026-05-04 20:40 | 28.18083 | -82.26708 | 6436 ft | 118 kts | 183° |
| 2026-05-04 20:40 | 28.17268 | -82.26817 | 6435 ft | 118 kts | 184° |
| 2026-05-04 20:41 | 28.16446 | -82.26932 | 6434 ft | 118 kts | 185° |
| 2026-05-04 20:41 | 28.15632 | -82.27051 | 6434 ft | 118 kts | 184° |
| 2026-05-04 20:41 | 28.14809 | -82.27173 | 6435 ft | 119 kts | 185° |
| 2026-05-04 20:41 | 28.13987 | -82.27298 | 6434 ft | 119 kts | 185° |
| 2026-05-04 20:42 | 28.13154 | -82.27425 | 6430 ft | 120 kts | 186° |
| 2026-05-04 20:42 | 28.12330 | -82.27554 | 6436 ft | 120 kts | 187° |
| 2026-05-04 20:42 | 28.11490 | -82.27686 | 6431 ft | 121 kts | 187° |
| 2026-05-04 20:42 | 28.10644 | -82.27821 | 6431 ft | 122 kts | 187° |
| 2026-05-04 20:43 | 28.09803 | -82.27956 | 6433 ft | 121 kts | 186° |
| 2026-05-04 20:43 | 28.08974 | -82.28090 | 6432 ft | 121 kts | 186° |
| 2026-05-04 20:43 | 28.08136 | -82.28224 | 6432 ft | 120 kts | 186° |
| 2026-05-04 20:43 | 28.07306 | -82.28358 | 6431 ft | 120 kts | 185° |
| 2026-05-04 20:44 | 28.06479 | -82.28490 | 6430 ft | 120 kts | 186° |
| 2026-05-04 20:44 | 28.05647 | -82.28621 | 6429 ft | 119 kts | 186° |
| 2026-05-04 20:44 | 28.04826 | -82.28753 | 6433 ft | 119 kts | 186° |
| 2026-05-04 20:44 | 28.04003 | -82.28884 | 6432 ft | 119 kts | 186° |
| 2026-05-04 20:45 | 28.03175 | -82.29016 | 6430 ft | 120 kts | 186° |
| 2026-05-04 20:45 | 28.02344 | -82.29148 | 6431 ft | 120 kts | 186° |
| 2026-05-04 20:45 | 28.01512 | -82.29280 | 6432 ft | 120 kts | 186° |
| 2026-05-04 20:45 | 28.00677 | -82.29414 | 6432 ft | 121 kts | 187° |
| 2026-05-04 20:46 | 27.99837 | -82.29540 | 6431 ft | 120 kts | 185° |
| 2026-05-04 20:46 | 27.99009 | -82.29665 | 6431 ft | 121 kts | 186° |
| 2026-05-04 20:46 | 27.98173 | -82.29792 | 6430 ft | 121 kts | 185° |
| 2026-05-04 20:46 | 27.97334 | -82.29923 | 6431 ft | 121 kts | 186° |
| 2026-05-04 20:47 | 27.96498 | -82.30054 | 6432 ft | 120 kts | 185° |
| 2026-05-04 20:47 | 27.95669 | -82.30184 | 6432 ft | 120 kts | 185° |
| 2026-05-04 20:47 | 27.94839 | -82.30314 | 6430 ft | 120 kts | 186° |
| 2026-05-04 20:47 | 27.94001 | -82.30447 | 6429 ft | 120 kts | 185° |
| 2026-05-04 20:48 | 27.93174 | -82.30576 | 6430 ft | 120 kts | 186° |
| 2026-05-04 20:48 | 27.92348 | -82.30707 | 6428 ft | 121 kts | 187° |
| 2026-05-04 20:48 | 27.91500 | -82.30841 | 6428 ft | 122 kts | 187° |
| 2026-05-04 20:48 | 27.90658 | -82.30975 | 6428 ft | 122 kts | 187° |
| 2026-05-04 20:49 | 27.89822 | -82.31110 | 6430 ft | 122 kts | 187° |
| 2026-05-04 20:49 | 27.88974 | -82.31245 | 6427 ft | 122 kts | 187° |
| 2026-05-04 20:49 | 27.88136 | -82.31379 | 6427 ft | 121 kts | 187° |
| 2026-05-04 20:49 | 27.87299 | -82.31513 | 6425 ft | 121 kts | 187° |
| 2026-05-04 20:50 | 27.86466 | -82.31647 | 6424 ft | 121 kts | 187° |
| 2026-05-04 20:50 | 27.85625 | -82.31782 | 6426 ft | 121 kts | 187° |
| 2026-05-04 20:50 | 27.84793 | -82.31915 | 6426 ft | 120 kts | 186° |
| 2026-05-04 20:50 | 27.83960 | -82.32048 | 6424 ft | 120 kts | 186° |
| 2026-05-04 20:51 | 27.83123 | -82.32180 | 6425 ft | 120 kts | 186° |
| 2026-05-04 20:51 | 27.82295 | -82.32312 | 6426 ft | 120 kts | 186° |
| 2026-05-04 20:51 | 27.81459 | -82.32445 | 6426 ft | 121 kts | 187° |
| 2026-05-04 20:51 | 27.80616 | -82.32578 | 6425 ft | 121 kts | 186° |
| 2026-05-04 20:52 | 27.79784 | -82.32711 | 6425 ft | 122 kts | 187° |
| 2026-05-04 20:52 | 27.78935 | -82.32845 | 6425 ft | 122 kts | 187° |
| 2026-05-04 20:52 | 27.78091 | -82.32980 | 6423 ft | 122 kts | 187° |
| 2026-05-04 20:52 | 27.77248 | -82.33114 | 6424 ft | 122 kts | 188° |
| 2026-05-04 20:53 | 27.76414 | -82.33247 | 6426 ft | 122 kts | 187° |
| 2026-05-04 20:53 | 27.75569 | -82.33383 | 6424 ft | 122 kts | 187° |
| 2026-05-04 20:53 | 27.74719 | -82.33520 | 6423 ft | 121 kts | 187° |
| 2026-05-04 20:53 | 27.73888 | -82.33652 | 6423 ft | 121 kts | 186° |
| 2026-05-04 20:54 | 27.73049 | -82.33787 | 6424 ft | 121 kts | 185° |
| 2026-05-04 20:54 | 27.72212 | -82.33920 | 6423 ft | 120 kts | 186° |
| 2026-05-04 20:54 | 27.71381 | -82.34051 | 6421 ft | 120 kts | 185° |
| 2026-05-04 20:54 | 27.70549 | -82.34184 | 6421 ft | 120 kts | 186° |
| 2026-05-04 20:55 | 27.69721 | -82.34315 | 6418 ft | 120 kts | 186° |
| 2026-05-04 20:55 | 27.68884 | -82.34447 | 6422 ft | 121 kts | 186° |
| 2026-05-04 20:55 | 27.68035 | -82.34582 | 6412 ft | 122 kts | 186° |
| 2026-05-04 20:55 | 27.67197 | -82.34714 | 6419 ft | 122 kts | 187° |
| 2026-05-04 20:56 | 27.66349 | -82.34850 | 6411 ft | 123 kts | 187° |
| 2026-05-04 20:56 | 27.65499 | -82.34985 | 6429 ft | 122 kts | 186° |
| 2026-05-04 20:56 | 27.64654 | -82.35120 | 6408 ft | 123 kts | 186° |
| 2026-05-04 20:56 | 27.63801 | -82.35256 | 6411 ft | 122 kts | 186° |
| 2026-05-04 20:57 | 27.62957 | -82.35390 | 6409 ft | 122 kts | 186° |
| 2026-05-04 20:57 | 27.62117 | -82.35523 | 6402 ft | 121 kts | 186° |
| 2026-05-04 20:57 | 27.61282 | -82.35656 | 6411 ft | 120 kts | 186° |
| 2026-05-04 20:57 | 27.60450 | -82.35789 | 6411 ft | 120 kts | 186° |
| 2026-05-04 20:58 | 27.59618 | -82.35920 | 6410 ft | 120 kts | 186° |
| 2026-05-04 20:58 | 27.58785 | -82.36052 | 6413 ft | 120 kts | 186° |
| 2026-05-04 20:58 | 27.57971 | -82.36180 | 6462 ft | 118 kts | 186° |
| 2026-05-04 20:58 | 27.57140 | -82.36310 | 6476 ft | 120 kts | 186° |
| 2026-05-04 20:59 | 27.56306 | -82.36442 | 6466 ft | 120 kts | 186° |
| 2026-05-04 20:59 | 27.55466 | -82.36552 | 6471 ft | 120 kts | 184° |
| 2026-05-04 20:59 | 27.54632 | -82.36610 | 6475 ft | 121 kts | 180° |
| 2026-05-04 20:59 | 27.53785 | -82.36623 | 6479 ft | 122 kts | 179° |
| 2026-05-04 21:00 | 27.52924 | -82.36637 | 6483 ft | 122 kts | 179° |
| 2026-05-04 21:00 | 27.52065 | -82.36652 | 6481 ft | 123 kts | 179° |
| 2026-05-04 21:00 | 27.51215 | -82.36667 | 6466 ft | 122 kts | 179° |
| 2026-05-04 21:00 | 27.50367 | -82.36684 | 6469 ft | 121 kts | 179° |
| 2026-05-04 21:01 | 27.49513 | -82.36706 | 6483 ft | 121 kts | 179° |
| 2026-05-04 21:01 | 27.48661 | -82.36700 | 6479 ft | 122 kts | 176° |
| 2026-05-04 21:01 | 27.47806 | -82.36667 | 6471 ft | 123 kts | 176° |
| 2026-05-04 21:01 | 27.46952 | -82.36628 | 6466 ft | 122 kts | 176° |
| 2026-05-04 21:02 | 27.46091 | -82.36584 | 6471 ft | 122 kts | 176° |
| 2026-05-04 21:02 | 27.45246 | -82.36537 | 6464 ft | 122 kts | 176° |
| 2026-05-04 21:02 | 27.44397 | -82.36488 | 6468 ft | 121 kts | 176° |
| 2026-05-04 21:02 | 27.43549 | -82.36437 | 6470 ft | 122 kts | 176° |
| 2026-05-04 21:03 | 27.42700 | -82.36388 | 6470 ft | 122 kts | 176° |
| 2026-05-04 21:03 | 27.41850 | -82.36340 | 6476 ft | 121 kts | 176° |
| 2026-05-04 21:03 | 27.40996 | -82.36295 | 6484 ft | 122 kts | 176° |
| 2026-05-04 21:03 | 27.40141 | -82.36249 | 6479 ft | 122 kts | 176° |
| 2026-05-04 21:04 | 27.39290 | -82.36248 | 6476 ft | 122 kts | 184° |
| 2026-05-04 21:04 | 27.38429 | -82.36332 | 6423 ft | 129 kts | 185° |
| 2026-05-04 21:04 | 27.37515 | -82.36430 | 6318 ft | 134 kts | 185° |
| 2026-05-04 21:04 | 27.36590 | -82.36536 | 6201 ft | 130 kts | 186° |
| 2026-05-04 21:05 | 27.35702 | -82.36639 | 6079 ft | 126 kts | 185° |
| 2026-05-04 21:05 | 27.34840 | -82.36749 | 5955 ft | 123 kts | 185° |
| 2026-05-04 21:05 | 27.33996 | -82.36860 | 5834 ft | 121 kts | 185° |
| 2026-05-04 21:05 | 27.33146 | -82.36983 | 5708 ft | 122 kts | 186° |
| 2026-05-04 21:06 | 27.32305 | -82.37112 | 5583 ft | 123 kts | 186° |
| 2026-05-04 21:06 | 27.31449 | -82.37251 | 5465 ft | 123 kts | 186° |
| 2026-05-04 21:06 | 27.30609 | -82.37392 | 5351 ft | 123 kts | 185° |
| 2026-05-04 21:06 | 27.29758 | -82.37539 | 5228 ft | 123 kts | 186° |
| 2026-05-04 21:07 | 27.28923 | -82.37690 | 5107 ft | 119 kts | 186° |
| 2026-05-04 21:07 | 27.28120 | -82.37835 | 4981 ft | 112 kts | 187° |
| 2026-05-04 21:07 | 27.27367 | -82.37977 | 4862 ft | 108 kts | 186° |
| 2026-05-04 21:07 | 27.26623 | -82.38130 | 4729 ft | 107 kts | 186° |
| 2026-05-04 21:08 | 27.25894 | -82.38284 | 4594 ft | 106 kts | 185° |
| 2026-05-04 21:08 | 27.25162 | -82.38441 | 4461 ft | 105 kts | 185° |
| 2026-05-04 21:08 | 27.24464 | -82.38589 | 4333 ft | 100 kts | 186° |
| 2026-05-04 21:08 | 27.23786 | -82.38738 | 4212 ft | 98 kts | 186° |
| 2026-05-04 21:09 | 27.23117 | -82.38884 | 4092 ft | 97 kts | 185° |
| 2026-05-04 21:09 | 27.22464 | -82.39028 | 3976 ft | 95 kts | 185° |
| 2026-05-04 21:09 | 27.21812 | -82.39181 | 3861 ft | 95 kts | 186° |
| 2026-05-04 21:09 | 27.21158 | -82.39337 | 3749 ft | 96 kts | 185° |
| 2026-05-04 21:10 | 27.20504 | -82.39503 | 3639 ft | 96 kts | 185° |
| 2026-05-04 21:10 | 27.19855 | -82.39669 | 3530 ft | 95 kts | 185° |
| 2026-05-04 21:10 | 27.19205 | -82.39838 | 3399 ft | 95 kts | 185° |
| 2026-05-04 21:10 | 27.18558 | -82.40012 | 3273 ft | 95 kts | 185° |
| 2026-05-04 21:11 | 27.17916 | -82.40191 | 3155 ft | 96 kts | 185° |
| 2026-05-04 21:11 | 27.17260 | -82.40379 | 3036 ft | 96 kts | 185° |
| 2026-05-04 21:11 | 27.16617 | -82.40568 | 2920 ft | 96 kts | 186° |
| 2026-05-04 21:11 | 27.15957 | -82.40754 | 2804 ft | 97 kts | 185° |
| 2026-05-04 21:12 | 27.15294 | -82.40941 | 2690 ft | 99 kts | 186° |
| 2026-05-04 21:12 | 27.14626 | -82.41125 | 2581 ft | 99 kts | 186° |
| 2026-05-04 21:12 | 27.13962 | -82.41290 | 2492 ft | 97 kts | 184° |
| 2026-05-04 21:12 | 27.13290 | -82.41457 | 2379 ft | 98 kts | 183° |
| 2026-05-04 21:13 | 27.12619 | -82.41615 | 2276 ft | 98 kts | 182° |
| 2026-05-04 21:13 | 27.11946 | -82.41766 | 2179 ft | 98 kts | 182° |
| 2026-05-04 21:13 | 27.11272 | -82.41929 | 2073 ft | 99 kts | 185° |
| 2026-05-04 21:13 | 27.10611 | -82.42144 | 2003 ft | 101 kts | 190° |
| 2026-05-04 21:14 | 27.09969 | -82.42448 | 1993 ft | 100 kts | 198° |
| 2026-05-04 21:14 | 27.09348 | -82.42831 | 1977 ft | 101 kts | 206° |
| 2026-05-04 21:14 | 27.08755 | -82.43261 | 1959 ft | 102 kts | 207° |
| 2026-05-04 21:14 | 27.08167 | -82.43700 | 1955 ft | 101 kts | 206° |
| 2026-05-04 21:15 | 27.07569 | -82.44147 | 1935 ft | 104 kts | 211° |
| 2026-05-04 21:15 | 27.06979 | -82.44603 | 1957 ft | 101 kts | 207° |
| 2026-05-04 21:15 | 27.06393 | -82.45037 | 1953 ft | 102 kts | 210° |
| 2026-05-04 21:15 | 27.05808 | -82.45491 | 1961 ft | 101 kts | 213° |
| 2026-05-04 21:16 | 27.05250 | -82.45992 | 1952 ft | 103 kts | 219° |
| 2026-05-04 21:16 | 27.04712 | -82.46513 | 1972 ft | 101 kts | 218° |
| 2026-05-04 21:16 | 27.04162 | -82.46996 | 1977 ft | 98 kts | 202° |
| 2026-05-04 21:16 | 27.03503 | -82.46961 | 1825 ft | 94 kts | 141° |
| 2026-05-04 21:17 | 27.03233 | -82.46376 | 1667 ft | 88 kts | 80° |
| 2026-05-04 21:17 | 27.03622 | -82.45902 | 1512 ft | 89 kts | 19° |
| 2026-05-04 21:17 | 27.04234 | -82.45766 | 1364 ft | 85 kts | 20° |
| 2026-05-04 21:17 | 27.04796 | -82.45598 | 1215 ft | 85 kts | 22° |
| 2026-05-04 21:18 | 27.05358 | -82.45387 | 1059 ft | 84 kts | 24° |
| 2026-05-04 21:18 | 27.05909 | -82.45145 | 954 ft | 83 kts | 26° |
| 2026-05-04 21:18 | 27.06467 | -82.45105 | 930 ft | 85 kts | 342° |
| 2026-05-04 21:18 | 27.06922 | -82.45564 | 883 ft | 86 kts | 320° |
| 2026-05-04 21:19 | 27.07313 | -82.46000 | 801 ft | 75 kts | 325° |
| 2026-05-04 21:19 | 27.07768 | -82.45996 | 664 ft | 71 kts | 44° |
| 2026-05-04 21:19 | 27.07980 | -82.45522 | 504 ft | 66 kts | 71° |
| 2026-05-04 21:19 | 27.07880 | -82.45052 | 317 ft | 65 kts | 115° |
| 2026-05-04 21:20 | 27.07592 | -82.44666 | 115 ft | 64 kts | 129° |
| 2026-05-04 21:20 | 27.07301 | -82.44344 | 15 ft | 49 kts | 131° |
| 2026-05-04 21:20 | 27.07152 | -82.44158 | 13 ft | 11 kts | 121° |
| 2026-05-04 21:20 | 27.07151 | -82.44100 | 13 ft | 5 kts | 45° |
| 2026-05-04 21:21 | 27.07172 | -82.44077 | 13 ft | 0 kts | 45° |
| 2026-05-04 21:21 | 27.07178 | -82.44070 | 13 ft | 3 kts | 45° |
| 2026-05-04 21:21 | 27.07208 | -82.44036 | 13 ft | 8 kts | 45° |
| 2026-05-04 21:22 | 27.07245 | -82.44019 | 13 ft | 4 kts | 331° |
| 2026-05-04 21:22 | 27.07278 | -82.44034 | 13 ft | 5 kts | 10° |
| 2026-05-04 21:22 | 27.07314 | -82.44022 | 13 ft | 6 kts | 17° |
| 2026-05-04 21:22 | 27.07367 | -82.44004 | 13 ft | 8 kts | 17° |
| 2026-05-04 21:23 | 27.07421 | -82.43997 | 13 ft | 8 kts | 0° |
| 2026-05-04 21:23 | 27.07485 | -82.43997 | 13 ft | 8 kts | 1° |
| 2026-05-04 21:23 | 27.07538 | -82.43996 | 13 ft | 6 kts | 0° |
| 2026-05-04 21:23 | 27.07589 | -82.43996 | 13 ft | 7 kts | 0° |
| 2026-05-04 21:24 | 27.07647 | -82.43996 | 13 ft | 7 kts | 360° |
| 2026-05-04 21:24 | 27.07690 | -82.43996 | 13 ft | 4 kts | 360° |
| 2026-05-04 21:24 | 27.07722 | -82.43992 | 13 ft | 5 kts | 32° |
| 2026-05-04 21:24 | 27.07732 | -82.43943 | 13 ft | 8 kts | 91° |
| 2026-05-04 21:25 | 27.07731 | -82.43883 | 13 ft | 7 kts | 90° |
| 2026-05-04 21:25 | 27.07732 | -82.43827 | 13 ft | 6 kts | 69° |
| 2026-05-04 21:25 | 27.07758 | -82.43800 | 13 ft | 3 kts | 46° |
| 2026-05-04 21:25 | 27.07763 | -82.43782 | 13 ft | 1 kts | 86° |
| 2026-05-04 21:26 | 27.07763 | -82.43770 | 13 ft | 0 kts | 91° |